sensor_id;sensor_type;location;lat;lon;timestamp;temperature;humidity
8892;DHT22;4482;54.332;10.118;2023-05-10T00:00:32;13.60;55.80
8892;DHT22;4482;54.332;10.118;2023-05-10T00:03:00;13.60;56.20
8892;DHT22;4482;54.332;10.118;2023-05-10T00:05:26;13.60;56.30
8892;DHT22;4482;54.332;10.118;2023-05-10T00:07:53;13.60;56.50
8892;DHT22;4482;54.332;10.118;2023-05-10T00:10:19;13.50;56.70
8892;DHT22;4482;54.332;10.118;2023-05-10T00:12:46;13.50;57.10
8892;DHT22;4482;54.332;10.118;2023-05-10T00:15:13;13.50;57.10
8892;DHT22;4482;54.332;10.118;2023-05-10T00:17:39;13.40;57.10
8892;DHT22;4482;54.332;10.118;2023-05-10T00:20:08;13.40;57.50
8892;DHT22;4482;54.332;10.118;2023-05-10T00:22:35;13.50;58.40
8892;DHT22;4482;54.332;10.118;2023-05-10T00:25:01;13.40;58.00
8892;DHT22;4482;54.332;10.118;2023-05-10T00:27:28;13.40;58.50
8892;DHT22;4482;54.332;10.118;2023-05-10T00:29:54;13.40;58.70
8892;DHT22;4482;54.332;10.118;2023-05-10T00:32:21;13.30;58.70
8892;DHT22;4482;54.332;10.118;2023-05-10T00:34:48;13.30;59.10
8892;DHT22;4482;54.332;10.118;2023-05-10T00:37:16;13.30;59.10
8892;DHT22;4482;54.332;10.118;2023-05-10T00:39:42;13.30;59.60
8892;DHT22;4482;54.332;10.118;2023-05-10T00:42:09;13.20;59.70
8892;DHT22;4482;54.332;10.118;2023-05-10T00:44:35;13.20;60.10
8892;DHT22;4482;54.332;10.118;2023-05-10T00:47:02;13.20;60.30
8892;DHT22;4482;54.332;10.118;2023-05-10T00:49:29;13.20;60.80
8892;DHT22;4482;54.332;10.118;2023-05-10T00:51:56;13.20;61.60
8892;DHT22;4482;54.332;10.118;2023-05-10T00:54:24;13.20;61.40
8892;DHT22;4482;54.332;10.118;2023-05-10T00:56:51;13.10;61.60
8892;DHT22;4482;54.332;10.118;2023-05-10T00:59:18;13.10;61.90
8892;DHT22;4482;54.332;10.118;2023-05-10T01:01:45;13.10;62.30
8892;DHT22;4482;54.332;10.118;2023-05-10T01:04:12;13.10;62.50
8892;DHT22;4482;54.332;10.118;2023-05-10T01:06:39;13.10;63.00
8892;DHT22;4482;54.332;10.118;2023-05-10T01:09:05;13.00;63.10
8892;DHT22;4482;54.332;10.118;2023-05-10T01:11:34;13.00;63.50
8892;DHT22;4482;54.332;10.118;2023-05-10T01:14:01;13.00;63.80
8892;DHT22;4482;54.332;10.118;2023-05-10T01:16:28;12.90;64.20
8892;DHT22;4482;54.332;10.118;2023-05-10T01:18:56;12.90;64.20
8892;DHT22;4482;54.332;10.118;2023-05-10T01:21:23;12.90;64.40
8892;DHT22;4482;54.332;10.118;2023-05-10T01:24:09;12.90;64.60
8892;DHT22;4482;54.332;10.118;2023-05-10T01:32:16;12.90;66.30
8892;DHT22;4482;54.332;10.118;2023-05-10T01:34:47;12.80;66.50
8892;DHT22;4482;54.332;10.118;2023-05-10T01:37:17;12.80;66.70
8892;DHT22;4482;54.332;10.118;2023-05-10T01:39:47;12.80;66.90
8892;DHT22;4482;54.332;10.118;2023-05-10T01:42:16;12.80;67.50
8892;DHT22;4482;54.332;10.118;2023-05-10T01:44:46;12.80;68.00
8892;DHT22;4482;54.332;10.118;2023-05-10T01:47:17;12.80;68.70
8892;DHT22;4482;54.332;10.118;2023-05-10T01:49:47;12.70;68.70
8892;DHT22;4482;54.332;10.118;2023-05-10T01:52:16;12.70;69.30
8892;DHT22;4482;54.332;10.118;2023-05-10T01:54:47;12.70;69.80
8892;DHT22;4482;54.332;10.118;2023-05-10T01:57:15;12.70;70.20
8892;DHT22;4482;54.332;10.118;2023-05-10T01:59:43;12.70;70.80
8892;DHT22;4482;54.332;10.118;2023-05-10T02:02:11;12.60;71.10
8892;DHT22;4482;54.332;10.118;2023-05-10T02:04:39;12.60;71.70
8892;DHT22;4482;54.332;10.118;2023-05-10T02:07:07;12.60;72.20
8892;DHT22;4482;54.332;10.118;2023-05-10T02:09:34;12.60;72.50
8892;DHT22;4482;54.332;10.118;2023-05-10T02:12:03;12.60;72.90
8892;DHT22;4482;54.332;10.118;2023-05-10T02:14:32;12.50;73.20
8892;DHT22;4482;54.332;10.118;2023-05-10T02:16:59;12.60;73.80
8892;DHT22;4482;54.332;10.118;2023-05-10T02:19:26;12.50;74.50
8892;DHT22;4482;54.332;10.118;2023-05-10T02:21:55;12.50;74.80
8892;DHT22;4482;54.332;10.118;2023-05-10T02:24:22;12.50;75.50
8892;DHT22;4482;54.332;10.118;2023-05-10T02:26:50;12.50;76.00
8892;DHT22;4482;54.332;10.118;2023-05-10T02:29:17;12.50;76.90
8892;DHT22;4482;54.332;10.118;2023-05-10T02:31:45;12.50;77.00
8892;DHT22;4482;54.332;10.118;2023-05-10T02:34:12;12.50;77.70
8892;DHT22;4482;54.332;10.118;2023-05-10T02:36:39;12.40;77.90
8892;DHT22;4482;54.332;10.118;2023-05-10T02:39:08;12.40;78.20
8892;DHT22;4482;54.332;10.118;2023-05-10T02:41:38;12.40;78.50
8892;DHT22;4482;54.332;10.118;2023-05-10T02:44:06;12.40;78.90
8892;DHT22;4482;54.332;10.118;2023-05-10T02:46:34;12.40;79.30
8892;DHT22;4482;54.332;10.118;2023-05-10T02:49:02;12.40;79.70
8892;DHT22;4482;54.332;10.118;2023-05-10T02:51:30;12.40;80.30
8892;DHT22;4482;54.332;10.118;2023-05-10T02:54:00;12.40;81.10
8892;DHT22;4482;54.332;10.118;2023-05-10T02:56:31;12.30;81.00
8892;DHT22;4482;54.332;10.118;2023-05-10T02:58:59;12.30;81.80
8892;DHT22;4482;54.332;10.118;2023-05-10T03:01:25;12.40;81.70
8892;DHT22;4482;54.332;10.118;2023-05-10T03:03:52;12.30;82.00
8892;DHT22;4482;54.332;10.118;2023-05-10T03:06:19;12.30;82.60
8892;DHT22;4482;54.332;10.118;2023-05-10T03:08:46;12.30;83.10
8892;DHT22;4482;54.332;10.118;2023-05-10T03:11:16;12.30;83.10
8892;DHT22;4482;54.332;10.118;2023-05-10T03:14:00;12.20;83.70
8892;DHT22;4482;54.332;10.118;2023-05-10T03:16:32;12.20;84.10
8892;DHT22;4482;54.332;10.118;2023-05-10T03:19:11;12.20;84.70
8892;DHT22;4482;54.332;10.118;2023-05-10T03:21:40;12.20;85.10
8892;DHT22;4482;54.332;10.118;2023-05-10T03:24:08;12.20;85.50
8892;DHT22;4482;54.332;10.118;2023-05-10T03:26:37;12.20;85.90
8892;DHT22;4482;54.332;10.118;2023-05-10T03:29:05;12.20;86.60
8892;DHT22;4482;54.332;10.118;2023-05-10T03:31:32;12.10;87.00
8892;DHT22;4482;54.332;10.118;2023-05-10T03:33:59;12.10;87.70
8892;DHT22;4482;54.332;10.118;2023-05-10T03:36:26;12.10;88.30
8892;DHT22;4482;54.332;10.118;2023-05-10T03:38:53;12.00;89.00
8892;DHT22;4482;54.332;10.118;2023-05-10T03:41:20;12.00;89.50
8892;DHT22;4482;54.332;10.118;2023-05-10T03:43:46;12.10;89.90
8892;DHT22;4482;54.332;10.118;2023-05-10T03:46:14;12.10;90.00
8892;DHT22;4482;54.332;10.118;2023-05-10T03:48:41;12.00;90.20
8892;DHT22;4482;54.332;10.118;2023-05-10T03:51:08;12.00;90.40
8892;DHT22;4482;54.332;10.118;2023-05-10T03:53:34;12.00;90.50
8892;DHT22;4482;54.332;10.118;2023-05-10T03:56:01;12.00;90.70
8892;DHT22;4482;54.332;10.118;2023-05-10T03:58:28;12.10;90.90
8892;DHT22;4482;54.332;10.118;2023-05-10T04:00:54;12.10;91.00
8892;DHT22;4482;54.332;10.118;2023-05-10T04:03:22;12.10;91.10
8892;DHT22;4482;54.332;10.118;2023-05-10T04:05:57;12.10;91.20
8892;DHT22;4482;54.332;10.118;2023-05-10T04:08:24;12.10;91.20
8892;DHT22;4482;54.332;10.118;2023-05-10T04:10:51;12.20;91.10
8892;DHT22;4482;54.332;10.118;2023-05-10T04:13:17;12.20;91.40
8892;DHT22;4482;54.332;10.118;2023-05-10T04:15:44;12.20;91.30
8892;DHT22;4482;54.332;10.118;2023-05-10T04:18:11;12.30;91.30
8892;DHT22;4482;54.332;10.118;2023-05-10T04:20:39;12.30;91.30
8892;DHT22;4482;54.332;10.118;2023-05-10T04:23:06;12.30;91.20
8892;DHT22;4482;54.332;10.118;2023-05-10T04:25:33;12.30;91.20
8892;DHT22;4482;54.332;10.118;2023-05-10T04:28:00;12.40;91.20
8892;DHT22;4482;54.332;10.118;2023-05-10T04:30:26;12.40;91.20
8892;DHT22;4482;54.332;10.118;2023-05-10T04:32:54;12.40;91.10
8892;DHT22;4482;54.332;10.118;2023-05-10T04:35:21;12.50;91.10
8892;DHT22;4482;54.332;10.118;2023-05-10T04:37:49;12.60;90.90
8892;DHT22;4482;54.332;10.118;2023-05-10T04:40:15;12.50;90.80
8892;DHT22;4482;54.332;10.118;2023-05-10T04:42:42;12.50;91.00
8892;DHT22;4482;54.332;10.118;2023-05-10T04:45:10;12.60;91.10
8892;DHT22;4482;54.332;10.118;2023-05-10T04:47:36;12.60;90.80
8892;DHT22;4482;54.332;10.118;2023-05-10T04:50:03;12.70;90.90
8892;DHT22;4482;54.332;10.118;2023-05-10T04:52:30;12.90;90.50
8892;DHT22;4482;54.332;10.118;2023-05-10T04:54:58;13.00;90.40
8892;DHT22;4482;54.332;10.118;2023-05-10T04:57:24;13.10;90.00
8892;DHT22;4482;54.332;10.118;2023-05-10T04:59:51;13.00;89.80
8892;DHT22;4482;54.332;10.118;2023-05-10T05:02:18;13.00;90.00
8892;DHT22;4482;54.332;10.118;2023-05-10T05:04:45;13.00;90.40
8892;DHT22;4482;54.332;10.118;2023-05-10T05:07:11;13.00;90.40
8892;DHT22;4482;54.332;10.118;2023-05-10T05:09:38;13.10;90.30
8892;DHT22;4482;54.332;10.118;2023-05-10T05:12:06;13.10;90.20
8892;DHT22;4482;54.332;10.118;2023-05-10T05:14:33;13.10;90.00
8892;DHT22;4482;54.332;10.118;2023-05-10T05:16:59;13.20;90.10
8892;DHT22;4482;54.332;10.118;2023-05-10T05:19:26;13.20;90.10
8892;DHT22;4482;54.332;10.118;2023-05-10T05:21:52;13.30;90.00
8892;DHT22;4482;54.332;10.118;2023-05-10T05:24:19;13.40;89.90
8892;DHT22;4482;54.332;10.118;2023-05-10T05:26:46;13.40;89.20
8892;DHT22;4482;54.332;10.118;2023-05-10T05:29:14;13.50;89.80
8892;DHT22;4482;54.332;10.118;2023-05-10T05:31:41;13.60;89.70
8892;DHT22;4482;54.332;10.118;2023-05-10T05:34:07;13.90;88.10
8892;DHT22;4482;54.332;10.118;2023-05-10T05:36:35;14.20;86.80
8892;DHT22;4482;54.332;10.118;2023-05-10T05:39:03;14.60;85.00
8892;DHT22;4482;54.332;10.118;2023-05-10T05:41:30;15.10;83.60
8892;DHT22;4482;54.332;10.118;2023-05-10T05:43:56;15.50;80.70
8892;DHT22;4482;54.332;10.118;2023-05-10T05:46:24;15.90;78.50
8892;DHT22;4482;54.332;10.118;2023-05-10T05:48:51;16.20;77.60
8892;DHT22;4482;54.332;10.118;2023-05-10T05:51:18;16.60;76.20
8892;DHT22;4482;54.332;10.118;2023-05-10T05:53:44;16.80;73.10
8892;DHT22;4482;54.332;10.118;2023-05-10T05:56:11;17.00;73.20
8892;DHT22;4482;54.332;10.118;2023-05-10T05:58:37;17.20;71.90
8892;DHT22;4482;54.332;10.118;2023-05-10T06:01:04;17.00;71.10
8892;DHT22;4482;54.332;10.118;2023-05-10T06:03:32;16.60;72.30
8892;DHT22;4482;54.332;10.118;2023-05-10T06:05:59;16.30;72.80
8892;DHT22;4482;54.332;10.118;2023-05-10T06:08:25;16.60;72.70
8892;DHT22;4482;54.332;10.118;2023-05-10T06:10:52;16.80;72.40
8892;DHT22;4482;54.332;10.118;2023-05-10T06:13:18;17.10;71.20
8892;DHT22;4482;54.332;10.118;2023-05-10T06:15:45;17.40;71.10
8892;DHT22;4482;54.332;10.118;2023-05-10T06:18:12;17.80;70.40
8892;DHT22;4482;54.332;10.118;2023-05-10T06:20:40;18.00;68.30
8892;DHT22;4482;54.332;10.118;2023-05-10T06:23:07;17.70;68.20
8892;DHT22;4482;54.332;10.118;2023-05-10T06:25:33;17.00;68.60
8892;DHT22;4482;54.332;10.118;2023-05-10T06:28:00;16.60;70.10
8892;DHT22;4482;54.332;10.118;2023-05-10T06:30:27;16.40;71.30
8892;DHT22;4482;54.332;10.118;2023-05-10T06:32:54;16.30;72.30
8892;DHT22;4482;54.332;10.118;2023-05-10T06:35:21;16.10;72.30
8892;DHT22;4482;54.332;10.118;2023-05-10T06:37:49;16.00;73.80
8892;DHT22;4482;54.332;10.118;2023-05-10T06:40:15;16.00;74.40
8892;DHT22;4482;54.332;10.118;2023-05-10T06:42:42;16.20;73.90
8892;DHT22;4482;54.332;10.118;2023-05-10T06:45:10;16.20;73.20
8892;DHT22;4482;54.332;10.118;2023-05-10T06:47:37;16.30;73.90
8892;DHT22;4482;54.332;10.118;2023-05-10T06:50:04;16.20;74.00
8892;DHT22;4482;54.332;10.118;2023-05-10T06:52:30;16.00;74.40
8892;DHT22;4482;54.332;10.118;2023-05-10T06:54:58;16.10;74.50
8892;DHT22;4482;54.332;10.118;2023-05-10T06:57:25;16.50;74.40
8892;DHT22;4482;54.332;10.118;2023-05-10T06:59:52;16.80;73.20
8892;DHT22;4482;54.332;10.118;2023-05-10T07:02:20;17.40;73.30
8892;DHT22;4482;54.332;10.118;2023-05-10T07:04:47;18.30;70.30
8892;DHT22;4482;54.332;10.118;2023-05-10T07:07:14;19.00;68.80
8892;DHT22;4482;54.332;10.118;2023-05-10T07:09:41;19.20;65.70
8892;DHT22;4482;54.332;10.118;2023-05-10T07:12:09;18.80;65.00
8892;DHT22;4482;54.332;10.118;2023-05-10T07:14:35;18.60;66.20
8892;DHT22;4482;54.332;10.118;2023-05-10T07:17:02;18.90;65.90
8892;DHT22;4482;54.332;10.118;2023-05-10T07:19:29;19.10;65.70
8892;DHT22;4482;54.332;10.118;2023-05-10T07:21:57;19.10;66.10
8892;DHT22;4482;54.332;10.118;2023-05-10T07:24:24;19.60;65.10
8892;DHT22;4482;54.332;10.118;2023-05-10T07:26:51;20.10;63.50
8892;DHT22;4482;54.332;10.118;2023-05-10T07:29:19;20.40;62.40
8892;DHT22;4482;54.332;10.118;2023-05-10T07:31:45;20.80;61.50
8892;DHT22;4482;54.332;10.118;2023-05-10T07:34:12;20.70;60.60
8892;DHT22;4482;54.332;10.118;2023-05-10T07:36:38;20.70;60.50
8892;DHT22;4482;54.332;10.118;2023-05-10T07:39:05;20.90;60.30
8892;DHT22;4482;54.332;10.118;2023-05-10T07:41:32;21.20;58.80
8892;DHT22;4482;54.332;10.118;2023-05-10T07:43:59;21.20;58.70
8892;DHT22;4482;54.332;10.118;2023-05-10T07:46:27;20.50;58.30
8892;DHT22;4482;54.332;10.118;2023-05-10T07:48:53;20.60;59.10
8892;DHT22;4482;54.332;10.118;2023-05-10T07:51:20;21.50;58.00
8892;DHT22;4482;54.332;10.118;2023-05-10T07:53:47;22.80;56.10
8892;DHT22;4482;54.332;10.118;2023-05-10T07:56:20;23.90;53.90
8892;DHT22;4482;54.332;10.118;2023-05-10T07:58:47;24.00;52.40
8892;DHT22;4482;54.332;10.118;2023-05-10T08:01:13;24.20;51.70
8892;DHT22;4482;54.332;10.118;2023-05-10T08:03:41;23.80;51.70
8892;DHT22;4482;54.332;10.118;2023-05-10T08:06:08;24.60;50.00
8892;DHT22;4482;54.332;10.118;2023-05-10T08:08:35;25.20;49.40
8892;DHT22;4482;54.332;10.118;2023-05-10T08:11:01;25.60;49.10
8892;DHT22;4482;54.332;10.118;2023-05-10T08:13:28;26.60;47.00
8892;DHT22;4482;54.332;10.118;2023-05-10T08:15:56;27.50;45.80
8892;DHT22;4482;54.332;10.118;2023-05-10T08:18:23;27.90;43.50
8892;DHT22;4482;54.332;10.118;2023-05-10T08:20:51;27.50;42.50
8892;DHT22;4482;54.332;10.118;2023-05-10T08:23:17;27.10;42.20
8892;DHT22;4482;54.332;10.118;2023-05-10T08:25:44;27.00;42.30
8892;DHT22;4482;54.332;10.118;2023-05-10T08:28:11;27.40;41.40
8892;DHT22;4482;54.332;10.118;2023-05-10T08:30:37;28.00;40.80
8892;DHT22;4482;54.332;10.118;2023-05-10T08:33:04;27.60;41.00
8892;DHT22;4482;54.332;10.118;2023-05-10T08:35:31;27.80;40.30
8892;DHT22;4482;54.332;10.118;2023-05-10T08:37:59;28.10;40.90
8892;DHT22;4482;54.332;10.118;2023-05-10T08:40:26;28.00;40.40
8892;DHT22;4482;54.332;10.118;2023-05-10T08:42:54;27.70;41.00
8892;DHT22;4482;54.332;10.118;2023-05-10T08:45:22;27.50;40.90
8892;DHT22;4482;54.332;10.118;2023-05-10T08:47:49;27.70;41.20
8892;DHT22;4482;54.332;10.118;2023-05-10T08:50:16;28.00;40.00
8892;DHT22;4482;54.332;10.118;2023-05-10T08:52:43;28.00;39.20
8892;DHT22;4482;54.332;10.118;2023-05-10T08:55:14;27.80;39.50
8892;DHT22;4482;54.332;10.118;2023-05-10T08:57:41;27.30;39.50
8892;DHT22;4482;54.332;10.118;2023-05-10T09:00:08;27.60;39.70
8892;DHT22;4482;54.332;10.118;2023-05-10T09:02:35;27.50;39.60
8892;DHT22;4482;54.332;10.118;2023-05-10T09:05:03;26.30;40.60
8892;DHT22;4482;54.332;10.118;2023-05-10T09:07:30;26.00;41.60
8892;DHT22;4482;54.332;10.118;2023-05-10T09:09:57;26.30;41.50
8892;DHT22;4482;54.332;10.118;2023-05-10T09:12:25;26.60;41.90
8892;DHT22;4482;54.332;10.118;2023-05-10T09:14:53;26.90;41.90
8892;DHT22;4482;54.332;10.118;2023-05-10T09:17:20;27.30;41.30
8892;DHT22;4482;54.332;10.118;2023-05-10T09:19:47;27.30;40.90
8892;DHT22;4482;54.332;10.118;2023-05-10T09:22:14;27.30;40.50
8892;DHT22;4482;54.332;10.118;2023-05-10T09:24:42;27.10;40.20
8892;DHT22;4482;54.332;10.118;2023-05-10T09:27:10;26.70;41.00
8892;DHT22;4482;54.332;10.118;2023-05-10T09:29:41;26.10;42.40
8892;DHT22;4482;54.332;10.118;2023-05-10T09:32:08;25.80;42.60
8892;DHT22;4482;54.332;10.118;2023-05-10T09:34:35;25.10;42.80
8892;DHT22;4482;54.332;10.118;2023-05-10T09:37:05;24.00;44.60
8892;DHT22;4482;54.332;10.118;2023-05-10T09:39:33;23.10;46.50
8892;DHT22;4482;54.332;10.118;2023-05-10T09:42:01;23.50;46.80
8892;DHT22;4482;54.332;10.118;2023-05-10T09:44:29;24.20;46.10
8892;DHT22;4482;54.332;10.118;2023-05-10T09:46:57;24.40;45.00
8892;DHT22;4482;54.332;10.118;2023-05-10T09:49:23;24.80;45.00
8892;DHT22;4482;54.332;10.118;2023-05-10T09:51:59;23.90;44.50
8892;DHT22;4482;54.332;10.118;2023-05-10T09:54:26;23.60;45.80
8892;DHT22;4482;54.332;10.118;2023-05-10T09:56:53;23.40;46.60
8892;DHT22;4482;54.332;10.118;2023-05-10T09:59:19;23.80;46.30
8892;DHT22;4482;54.332;10.118;2023-05-10T10:01:49;24.30;46.20
8892;DHT22;4482;54.332;10.118;2023-05-10T10:04:17;25.30;45.60
8892;DHT22;4482;54.332;10.118;2023-05-10T10:06:44;26.00;45.20
8892;DHT22;4482;54.332;10.118;2023-05-10T10:09:10;26.60;43.60
8892;DHT22;4482;54.332;10.118;2023-05-10T10:11:38;26.90;42.20
8892;DHT22;4482;54.332;10.118;2023-05-10T10:14:06;25.90;43.40
8892;DHT22;4482;54.332;10.118;2023-05-10T10:16:33;26.00;43.80
8892;DHT22;4482;54.332;10.118;2023-05-10T10:19:00;26.00;43.30
8892;DHT22;4482;54.332;10.118;2023-05-10T10:21:28;25.90;44.10
8892;DHT22;4482;54.332;10.118;2023-05-10T10:23:54;26.10;44.30
8892;DHT22;4482;54.332;10.118;2023-05-10T10:26:21;26.60;43.50
8892;DHT22;4482;54.332;10.118;2023-05-10T10:28:49;26.90;43.20
8892;DHT22;4482;54.332;10.118;2023-05-10T10:31:23;26.80;43.30
8892;DHT22;4482;54.332;10.118;2023-05-10T10:33:56;26.60;43.30
8892;DHT22;4482;54.332;10.118;2023-05-10T10:36:25;26.00;43.50
8892;DHT22;4482;54.332;10.118;2023-05-10T10:38:58;25.80;43.60
8892;DHT22;4482;54.332;10.118;2023-05-10T10:41:32;25.40;45.20
8892;DHT22;4482;54.332;10.118;2023-05-10T10:44:22;24.70;45.10
8892;DHT22;4482;54.332;10.118;2023-05-10T10:46:58;23.70;46.70
8892;DHT22;4482;54.332;10.118;2023-05-10T10:49:24;23.10;47.60
8892;DHT22;4482;54.332;10.118;2023-05-10T10:54:37;21.10;50.70
8892;DHT22;4482;54.332;10.118;2023-05-10T10:57:10;21.00;52.50
8892;DHT22;4482;54.332;10.118;2023-05-10T10:59:40;21.20;53.20
8892;DHT22;4482;54.332;10.118;2023-05-10T11:02:07;21.30;52.40
8892;DHT22;4482;54.332;10.118;2023-05-10T11:04:41;21.50;52.30
8892;DHT22;4482;54.332;10.118;2023-05-10T11:07:17;22.20;51.80
8892;DHT22;4482;54.332;10.118;2023-05-10T11:09:47;21.80;51.60
8892;DHT22;4482;54.332;10.118;2023-05-10T11:12:17;21.50;52.20
8892;DHT22;4482;54.332;10.118;2023-05-10T11:14:43;21.40;53.00
8892;DHT22;4482;54.332;10.118;2023-05-10T11:17:22;21.40;53.20
8892;DHT22;4482;54.332;10.118;2023-05-10T11:20:07;21.40;53.90
8892;DHT22;4482;54.332;10.118;2023-05-10T11:22:48;21.20;53.70
8892;DHT22;4482;54.332;10.118;2023-05-10T11:25:17;20.80;55.90
8892;DHT22;4482;54.332;10.118;2023-05-10T11:27:43;20.70;56.60
8892;DHT22;4482;54.332;10.118;2023-05-10T11:30:11;20.60;56.90
8892;DHT22;4482;54.332;10.118;2023-05-10T11:32:38;20.40;57.10
8892;DHT22;4482;54.332;10.118;2023-05-10T11:35:08;20.10;58.20
8892;DHT22;4482;54.332;10.118;2023-05-10T11:37:34;19.90;57.20
8892;DHT22;4482;54.332;10.118;2023-05-10T11:40:01;19.80;58.10
8892;DHT22;4482;54.332;10.118;2023-05-10T11:42:30;19.70;58.40
8892;DHT22;4482;54.332;10.118;2023-05-10T11:44:56;19.50;58.80
8892;DHT22;4482;54.332;10.118;2023-05-10T11:47:23;19.40;59.30
8892;DHT22;4482;54.332;10.118;2023-05-10T11:49:50;19.40;59.90
8892;DHT22;4482;54.332;10.118;2023-05-10T11:52:18;19.40;60.50
8892;DHT22;4482;54.332;10.118;2023-05-10T11:54:45;19.50;60.70
8892;DHT22;4482;54.332;10.118;2023-05-10T11:57:17;19.60;62.20
8892;DHT22;4482;54.332;10.118;2023-05-10T11:59:45;19.60;62.80
8892;DHT22;4482;54.332;10.118;2023-05-10T12:02:12;19.50;62.70
8892;DHT22;4482;54.332;10.118;2023-05-10T12:04:39;19.40;62.60
8892;DHT22;4482;54.332;10.118;2023-05-10T12:07:06;19.40;63.20
8892;DHT22;4482;54.332;10.118;2023-05-10T12:09:32;19.40;64.80
8892;DHT22;4482;54.332;10.118;2023-05-10T12:11:59;19.50;64.30
8892;DHT22;4482;54.332;10.118;2023-05-10T12:14:26;19.50;63.70
8892;DHT22;4482;54.332;10.118;2023-05-10T12:16:54;19.60;64.40
8892;DHT22;4482;54.332;10.118;2023-05-10T12:19:23;19.40;65.20
8892;DHT22;4482;54.332;10.118;2023-05-10T12:21:49;19.30;66.30
8892;DHT22;4482;54.332;10.118;2023-05-10T12:24:16;19.20;67.70
8892;DHT22;4482;54.332;10.118;2023-05-10T12:26:45;19.10;68.90
8892;DHT22;4482;54.332;10.118;2023-05-10T12:29:12;18.80;72.40
8892;DHT22;4482;54.332;10.118;2023-05-10T12:31:48;18.60;77.20
8892;DHT22;4482;54.332;10.118;2023-05-10T12:34:23;18.40;82.20
8892;DHT22;4482;54.332;10.118;2023-05-10T12:36:50;17.80;87.70
8892;DHT22;4482;54.332;10.118;2023-05-10T12:39:16;17.30;93.60
8892;DHT22;4482;54.332;10.118;2023-05-10T12:41:43;16.80;99.90
8892;DHT22;4482;54.332;10.118;2023-05-10T12:44:10;16.30;99.90
8892;DHT22;4482;54.332;10.118;2023-05-10T12:46:37;15.90;99.90
8892;DHT22;4482;54.332;10.118;2023-05-10T12:49:03;15.70;99.90
8892;DHT22;4482;54.332;10.118;2023-05-10T12:51:31;15.60;99.90
8892;DHT22;4482;54.332;10.118;2023-05-10T12:53:58;15.60;99.90
8892;DHT22;4482;54.332;10.118;2023-05-10T12:56:25;15.40;99.90
8892;DHT22;4482;54.332;10.118;2023-05-10T12:58:51;15.30;99.90
8892;DHT22;4482;54.332;10.118;2023-05-10T13:01:18;15.20;99.90
8892;DHT22;4482;54.332;10.118;2023-05-10T13:03:45;15.10;99.90
8892;DHT22;4482;54.332;10.118;2023-05-10T13:06:13;15.00;99.90
8892;DHT22;4482;54.332;10.118;2023-05-10T13:08:41;15.00;99.90
8892;DHT22;4482;54.332;10.118;2023-05-10T13:11:07;14.90;99.90
8892;DHT22;4482;54.332;10.118;2023-05-10T13:13:34;14.90;99.90
8892;DHT22;4482;54.332;10.118;2023-05-10T13:16:01;14.80;99.90
8892;DHT22;4482;54.332;10.118;2023-05-10T13:18:27;14.80;99.90
8892;DHT22;4482;54.332;10.118;2023-05-10T13:20:54;14.70;99.90
8892;DHT22;4482;54.332;10.118;2023-05-10T13:23:21;14.60;99.90
8892;DHT22;4482;54.332;10.118;2023-05-10T13:25:48;14.60;99.90
8892;DHT22;4482;54.332;10.118;2023-05-10T13:28:15;14.50;99.90
8892;DHT22;4482;54.332;10.118;2023-05-10T13:30:42;14.50;99.90
8892;DHT22;4482;54.332;10.118;2023-05-10T13:33:08;14.50;99.90
8892;DHT22;4482;54.332;10.118;2023-05-10T13:35:35;14.50;99.90
8892;DHT22;4482;54.332;10.118;2023-05-10T13:38:02;14.50;99.90
8892;DHT22;4482;54.332;10.118;2023-05-10T13:40:28;14.60;99.90
8892;DHT22;4482;54.332;10.118;2023-05-10T13:42:56;14.60;99.90
8892;DHT22;4482;54.332;10.118;2023-05-10T13:45:23;14.60;99.90
8892;DHT22;4482;54.332;10.118;2023-05-10T13:47:49;14.60;99.90
8892;DHT22;4482;54.332;10.118;2023-05-10T13:50:17;14.60;99.90
8892;DHT22;4482;54.332;10.118;2023-05-10T13:52:43;14.60;99.90
8892;DHT22;4482;54.332;10.118;2023-05-10T13:55:10;14.60;99.90
8892;DHT22;4482;54.332;10.118;2023-05-10T13:57:38;14.50;99.90
8892;DHT22;4482;54.332;10.118;2023-05-10T14:00:07;14.50;99.90
8892;DHT22;4482;54.332;10.118;2023-05-10T14:02:33;14.50;99.90
8892;DHT22;4482;54.332;10.118;2023-05-10T14:05:00;14.50;99.90
8892;DHT22;4482;54.332;10.118;2023-05-10T14:07:27;14.50;99.90
8892;DHT22;4482;54.332;10.118;2023-05-10T14:09:53;14.50;99.90
8892;DHT22;4482;54.332;10.118;2023-05-10T14:12:20;14.40;99.90
8892;DHT22;4482;54.332;10.118;2023-05-10T14:14:47;14.40;99.90
8892;DHT22;4482;54.332;10.118;2023-05-10T14:17:15;14.40;99.90
8892;DHT22;4482;54.332;10.118;2023-05-10T14:19:41;14.40;99.90
8892;DHT22;4482;54.332;10.118;2023-05-10T14:22:08;14.50;99.90
8892;DHT22;4482;54.332;10.118;2023-05-10T14:24:35;14.60;99.90
8892;DHT22;4482;54.332;10.118;2023-05-10T14:27:01;14.70;99.90
8892;DHT22;4482;54.332;10.118;2023-05-10T14:29:28;14.80;99.90
8892;DHT22;4482;54.332;10.118;2023-05-10T14:31:55;14.90;99.90
8892;DHT22;4482;54.332;10.118;2023-05-10T14:34:23;15.00;99.90
8892;DHT22;4482;54.332;10.118;2023-05-10T14:36:49;15.10;99.90
8892;DHT22;4482;54.332;10.118;2023-05-10T14:39:16;15.10;99.90
8892;DHT22;4482;54.332;10.118;2023-05-10T14:41:43;15.20;99.90
8892;DHT22;4482;54.332;10.118;2023-05-10T14:44:10;15.30;99.90
8892;DHT22;4482;54.332;10.118;2023-05-10T14:46:37;15.40;99.90
8892;DHT22;4482;54.332;10.118;2023-05-10T14:49:04;15.60;99.90
8892;DHT22;4482;54.332;10.118;2023-05-10T14:51:33;15.60;99.90
8892;DHT22;4482;54.332;10.118;2023-05-10T14:53:59;15.70;99.90
8892;DHT22;4482;54.332;10.118;2023-05-10T14:56:27;15.70;99.90
8892;DHT22;4482;54.332;10.118;2023-05-10T14:58:54;15.70;99.90
8892;DHT22;4482;54.332;10.118;2023-05-10T15:01:20;15.60;99.90
8892;DHT22;4482;54.332;10.118;2023-05-10T15:03:47;15.60;99.90
8892;DHT22;4482;54.332;10.118;2023-05-10T15:06:14;15.40;99.90
8892;DHT22;4482;54.332;10.118;2023-05-10T15:08:42;15.40;99.90
8892;DHT22;4482;54.332;10.118;2023-05-10T15:11:09;15.40;99.90
8892;DHT22;4482;54.332;10.118;2023-05-10T15:13:35;15.40;99.90
8892;DHT22;4482;54.332;10.118;2023-05-10T15:16:02;15.50;99.90
8892;DHT22;4482;54.332;10.118;2023-05-10T15:18:29;15.50;99.90
8892;DHT22;4482;54.332;10.118;2023-05-10T15:20:55;15.50;99.90
8892;DHT22;4482;54.332;10.118;2023-05-10T15:23:23;15.60;99.90
8892;DHT22;4482;54.332;10.118;2023-05-10T15:25:51;15.70;99.90
8892;DHT22;4482;54.332;10.118;2023-05-10T15:28:20;15.80;99.90
8892;DHT22;4482;54.332;10.118;2023-05-10T15:30:47;15.80;99.90
8892;DHT22;4482;54.332;10.118;2023-05-10T15:33:14;15.90;99.90
8892;DHT22;4482;54.332;10.118;2023-05-10T15:35:40;15.90;99.90
8892;DHT22;4482;54.332;10.118;2023-05-10T15:38:07;15.90;99.90
8892;DHT22;4482;54.332;10.118;2023-05-10T15:40:33;15.90;99.90
8892;DHT22;4482;54.332;10.118;2023-05-10T15:43:02;15.90;99.90
8892;DHT22;4482;54.332;10.118;2023-05-10T15:45:28;16.00;99.90
8892;DHT22;4482;54.332;10.118;2023-05-10T15:47:55;16.00;99.90
8892;DHT22;4482;54.332;10.118;2023-05-10T15:50:22;16.00;99.90
8892;DHT22;4482;54.332;10.118;2023-05-10T15:52:48;16.10;99.90
8892;DHT22;4482;54.332;10.118;2023-05-10T15:55:15;16.10;99.90